Time;durP1;ratioP1;P1;durP2;ratioP2;P2;SDS_P1;SDS_P2;PMS_P1;PMS_P2;Temp;Humidity;BMP_temperature;BMP_pressure;BME280_temperature;BME280_humidity;BME280_pressure;Samples;Min_cycle;Max_cycle;Signal;HPM_P1;HPM_P2
2020/12/22 00:00:47;;;;;;;3.43;3.00;;;10.20;99.90;;;;;;4934009;29;20467;-75
2020/12/22 00:03:13;;;;;;;6.07;3.40;;;10.30;99.90;;;;;;4941607;29;20450;-75
2020/12/22 00:05:39;;;;;;;4.40;2.93;;;10.30;99.90;;;;;;4939739;28;20448;-73
2020/12/22 00:08:12;;;;;;;3.07;2.40;;;10.40;99.90;;;;;;4948001;29;20506;-73
2020/12/22 00:10:41;;;;;;;5.30;3.20;;;10.40;99.90;;;;;;4956673;28;20946;-73
2020/12/22 00:13:09;;;;;;;4.37;3.37;;;10.50;99.90;;;;;;4931843;29;20428;-73
2020/12/22 00:15:39;;;;;;;3.97;2.73;;;10.40;99.90;;;;;;4941876;29;20448;-73
2020/12/22 00:18:07;;;;;;;3.20;2.50;;;10.40;99.90;;;;;;4954239;29;20439;-73
2020/12/22 00:20:33;;;;;;;5.67;2.63;;;10.50;99.90;;;;;;4953283;28;20559;-73
2020/12/22 00:22:59;;;;;;;4.40;3.43;;;10.60;99.90;;;;;;4940145;29;20430;-73
2020/12/22 00:25:25;;;;;;;2.43;2.23;;;10.60;99.90;;;;;;4937195;28;20965;-73
2020/12/22 00:27:53;;;;;;;4.93;2.40;;;10.70;99.90;;;;;;4941011;28;20460;-73
2020/12/22 00:30:19;;;;;;;2.30;1.50;;;10.70;99.90;;;;;;4938128;29;20420;-73
2020/12/22 00:32:46;;;;;;;2.67;1.40;;;10.80;99.90;;;;;;4946123;29;20440;-73
2020/12/22 00:35:12;;;;;;;1.10;0.90;;;11.00;99.90;;;;;;4954703;28;20490;-73
2020/12/22 00:37:38;;;;;;;2.03;1.10;;;11.20;99.90;;;;;;4955012;28;20455;-73
2020/12/22 00:40:04;;;;;;;1.20;0.90;;;11.30;99.90;;;;;;4939809;29;20430;-73
2020/12/22 00:42:31;;;;;;;1.10;0.90;;;11.60;99.90;;;;;;4932726;29;20421;-73
2020/12/22 00:44:59;;;;;;;1.80;0.80;;;11.70;99.90;;;;;;4952554;29;20176;-73
2020/12/22 00:47:25;;;;;;;2.67;0.93;;;11.90;99.90;;;;;;4939215;28;21025;-73
2020/12/22 00:49:52;;;;;;;1.00;0.90;;;12.00;99.90;;;;;;4972040;28;20936;-73
2020/12/22 00:52:19;;;;;;;1.60;1.00;;;12.10;99.90;;;;;;4955196;29;20758;-73
2020/12/22 00:54:47;;;;;;;0.90;0.70;;;12.10;99.90;;;;;;4968705;28;20470;-73
2020/12/22 00:57:16;;;;;;;1.10;0.80;;;12.30;99.90;;;;;;4940495;28;20543;-73
2020/12/22 00:59:56;;;;;;;1.00;0.77;;;12.40;99.90;;;;;;4937840;29;20432;-73
2020/12/22 01:02:25;;;;;;;3.50;0.90;;;12.50;99.90;;;;;;4937937;29;20527;-73
2020/12/22 01:04:51;;;;;;;1.03;0.70;;;12.50;99.90;;;;;;4955680;29;20423;-73
2020/12/22 01:07:20;;;;;;;0.90;0.70;;;12.60;99.90;;;;;;4954348;29;21276;-73
2020/12/22 01:09:51;;;;;;;0.90;0.80;;;12.60;99.90;;;;;;4955374;29;20485;-73
2020/12/22 01:12:17;;;;;;;2.43;1.07;;;12.70;99.90;;;;;;4954285;28;20424;-73
2020/12/22 01:14:45;;;;;;;2.37;1.03;;;12.70;99.90;;;;;;4936239;29;20433;-73
2020/12/22 01:17:14;;;;;;;2.27;0.80;;;12.70;99.90;;;;;;4952902;29;20462;-73
2020/12/22 01:19:40;;;;;;;1.40;0.70;;;12.80;99.90;;;;;;4942445;29;20421;-73
2020/12/22 01:22:07;;;;;;;1.10;0.80;;;12.70;99.90;;;;;;4968862;28;20533;-73
2020/12/22 01:24:37;;;;;;;1.10;0.90;;;12.80;99.90;;;;;;4955065;29;20820;-73
2020/12/22 01:27:05;;;;;;;4.10;0.90;;;13.00;99.90;;;;;;4944943;28;20471;-74
2020/12/22 01:29:31;;;;;;;0.87;0.67;;;13.00;99.90;;;;;;4929747;29;20809;-73
2020/12/22 01:31:58;;;;;;;1.63;0.90;;;13.00;99.90;;;;;;4946487;28;20499;-73
2020/12/22 01:34:26;;;;;;;1.17;0.70;;;13.10;99.90;;;;;;4935318;29;20905;-74
2020/12/22 01:36:54;;;;;;;2.20;0.90;;;13.10;99.90;;;;;;4941031;28;20464;-73
2020/12/22 01:39:25;;;;;;;1.10;0.80;;;13.20;99.90;;;;;;4942752;29;20489;-73
2020/12/22 01:41:51;;;;;;;3.43;0.70;;;13.30;99.90;;;;;;4955336;28;20482;-73
2020/12/22 01:44:17;;;;;;;1.10;0.90;;;13.20;99.90;;;;;;4954550;28;20554;-73
2020/12/22 01:46:46;;;;;;;1.30;1.10;;;13.30;99.90;;;;;;4954848;28;20481;-73
2020/12/22 01:49:25;;;;;;;2.10;1.10;;;13.30;99.90;;;;;;4954932;28;20909;-73
2020/12/22 01:51:53;;;;;;;1.00;0.90;;;13.40;99.90;;;;;;4953828;28;20835;-73
2020/12/22 01:54:23;;;;;;;1.63;0.80;;;13.50;99.90;;;;;;4948890;28;20837;-73
2020/12/22 01:56:54;;;;;;;0.90;0.73;;;13.50;99.90;;;;;;4938919;29;20988;-73
2020/12/22 01:59:26;;;;;;;4.03;1.10;;;13.40;99.90;;;;;;4956067;28;20991;-73
2020/12/22 02:01:57;;;;;;;4.30;0.90;;;13.40;99.90;;;;;;4939144;29;20527;-73
2020/12/22 02:04:23;;;;;;;3.20;1.10;;;13.50;99.90;;;;;;4955679;28;20926;-73
2020/12/22 02:06:53;;;;;;;1.20;0.90;;;13.50;99.90;;;;;;4951988;28;20503;-73
2020/12/22 02:09:19;;;;;;;1.30;0.97;;;13.50;99.90;;;;;;4936330;29;20496;-73
2020/12/22 02:11:48;;;;;;;1.57;0.83;;;13.50;99.90;;;;;;4954111;29;20435;-73
2020/12/22 02:14:14;;;;;;;1.40;0.80;;;13.50;99.90;;;;;;4954359;29;20431;-73
2020/12/22 02:16:42;;;;;;;1.80;0.83;;;13.60;99.90;;;;;;4954370;29;20983;-73
2020/12/22 02:19:11;;;;;;;1.20;1.03;;;13.60;99.90;;;;;;4955526;28;20941;-73
2020/12/22 02:21:41;;;;;;;1.47;0.87;;;13.60;99.90;;;;;;4955288;28;20420;-73
2020/12/22 02:24:07;;;;;;;2.27;1.20;;;13.60;99.90;;;;;;4954979;28;20941;-73
2020/12/22 02:26:36;;;;;;;1.80;0.90;;;13.60;99.90;;;;;;4953821;28;20718;-73
2020/12/22 02:29:02;;;;;;;2.20;1.13;;;13.70;99.90;;;;;;4955361;28;20489;-73
2020/12/22 02:31:28;;;;;;;1.43;1.00;;;13.70;99.90;;;;;;4954530;28;20559;-73
2020/12/22 02:33:57;;;;;;;3.10;1.10;;;13.60;99.90;;;;;;4954006;28;20443;-73
2020/12/22 02:36:27;;;;;;;1.37;0.80;;;13.60;99.90;;;;;;4955293;28;20505;-73
2020/12/22 02:38:53;;;;;;;2.47;1.60;;;13.60;99.90;;;;;;4954298;29;20424;-73
2020/12/22 02:41:19;;;;;;;1.90;0.87;;;13.70;99.90;;;;;;4938298;28;20454;-73
2020/12/22 02:43:45;;;;;;;1.93;1.10;;;13.80;99.90;;;;;;4954039;29;20411;-73
2020/12/22 02:46:14;;;;;;;1.73;1.10;;;13.70;99.90;;;;;;4954553;28;20792;-73
2020/12/22 02:48:42;;;;;;;4.60;1.10;;;13.70;99.90;;;;;;4953535;29;20495;-73
2020/12/22 02:51:11;;;;;;;3.50;1.10;;;13.80;99.90;;;;;;4953915;29;20836;-73
2020/12/22 02:53:37;;;;;;;2.80;1.33;;;13.70;99.90;;;;;;4954905;28;20786;-73
2020/12/22 02:56:07;;;;;;;2.40;1.07;;;13.70;99.90;;;;;;4934042;29;20476;-73
2020/12/22 02:58:34;;;;;;;1.80;1.20;;;13.70;99.90;;;;;;4948665;28;20443;-73
2020/12/22 03:01:02;;;;;;;3.33;1.07;;;13.80;99.90;;;;;;4954516;28;20427;-73
2020/12/22 03:03:31;;;;;;;1.40;1.10;;;13.80;99.90;;;;;;4938007;29;20429;-73
2020/12/22 03:05:57;;;;;;;1.57;1.00;;;13.90;99.90;;;;;;4943565;29;20959;-73
2020/12/22 03:08:26;;;;;;;3.30;1.27;;;13.80;99.90;;;;;;4968126;28;20548;-73
2020/12/22 03:10:55;;;;;;;4.27;1.13;;;13.90;99.90;;;;;;4972668;28;20415;-73
2020/12/22 03:13:23;;;;;;;1.97;1.20;;;13.90;99.90;;;;;;4956492;28;20418;-73
2020/12/22 03:15:51;;;;;;;2.90;1.00;;;14.00;99.90;;;;;;4944929;29;20456;-73
2020/12/22 03:18:20;;;;;;;3.27;1.10;;;14.00;99.90;;;;;;4935408;29;20432;-73
2020/12/22 03:20:46;;;;;;;1.50;0.90;;;14.00;99.90;;;;;;4930772;28;20438;-73
2020/12/22 03:23:13;;;;;;;2.10;1.67;;;14.00;99.90;;;;;;4973707;28;20437;-73
2020/12/22 03:25:39;;;;;;;1.10;1.00;;;14.00;99.90;;;;;;4966857;28;20447;-73
2020/12/22 03:28:05;;;;;;;1.90;1.10;;;14.00;99.90;;;;;;4952913;28;20471;-73
2020/12/22 03:30:31;;;;;;;6.43;1.27;;;14.00;99.90;;;;;;4952530;28;20476;-73
2020/12/22 03:33:00;;;;;;;2.97;1.20;;;14.00;99.90;;;;;;4922067;29;20483;-73
2020/12/22 03:35:29;;;;;;;2.80;1.10;;;14.10;99.90;;;;;;4937443;29;20442;-73
2020/12/22 03:37:55;;;;;;;1.47;1.00;;;14.10;99.90;;;;;;4944420;28;20768;-73
2020/12/22 03:40:21;;;;;;;2.10;0.83;;;14.10;99.90;;;;;;4935122;28;20428;-73
2020/12/22 03:42:51;;;;;;;1.40;1.30;;;14.10;99.90;;;;;;4944481;29;20439;-73
2020/12/22 03:45:17;;;;;;;1.50;1.07;;;14.10;99.90;;;;;;4954504;28;20471;-73
2020/12/22 03:47:46;;;;;;;1.97;0.80;;;14.10;99.90;;;;;;4954304;28;20942;-73
2020/12/22 03:50:16;;;;;;;4.20;1.20;;;14.00;99.90;;;;;;4954591;28;20426;-73
2020/12/22 03:52:42;;;;;;;1.73;1.03;;;14.10;99.90;;;;;;4961375;28;20438;-73
2020/12/22 03:55:13;;;;;;;1.77;0.90;;;14.10;99.90;;;;;;4972295;28;20466;-73
2020/12/22 03:57:41;;;;;;;1.83;1.20;;;14.20;99.90;;;;;;4972710;28;20431;-73
2020/12/22 04:00:15;;;;;;;1.97;1.20;;;14.20;99.90;;;;;;4972235;28;20469;-73
2020/12/22 04:02:41;;;;;;;2.90;1.20;;;14.10;99.90;;;;;;4972320;28;20422;-73
2020/12/22 04:05:10;;;;;;;1.30;0.80;;;14.10;99.90;;;;;;4973865;28;20457;-73
2020/12/22 04:07:39;;;;;;;2.40;1.23;;;14.20;99.90;;;;;;4972406;28;20474;-73
2020/12/22 04:10:08;;;;;;;1.30;1.10;;;14.20;99.90;;;;;;4974622;28;20450;-73
2020/12/22 04:12:37;;;;;;;1.63;0.83;;;14.20;99.90;;;;;;4976090;28;20402;-73
2020/12/22 04:15:05;;;;;;;1.00;0.90;;;14.20;99.90;;;;;;4975989;28;20418;-73
2020/12/22 04:17:32;;;;;;;1.10;0.83;;;14.20;99.90;;;;;;4976254;28;20923;-73
2020/12/22 04:19:58;;;;;;;1.23;1.03;;;14.10;99.90;;;;;;4975216;28;20450;-73
2020/12/22 04:22:27;;;;;;;3.30;1.07;;;14.10;99.90;;;;;;4924995;29;20443;-73
2020/12/22 04:24:53;;;;;;;1.40;0.80;;;14.10;99.90;;;;;;4921760;29;20515;-73
2020/12/22 04:27:19;;;;;;;1.60;1.10;;;14.20;99.90;;;;;;4937221;29;21006;-73
2020/12/22 04:29:48;;;;;;;0.90;0.70;;;14.20;99.90;;;;;;4938102;29;20428;-73
2020/12/22 04:32:14;;;;;;;1.50;0.80;;;14.20;99.90;;;;;;4921056;29;20435;-73
2020/12/22 04:34:45;;;;;;;1.50;0.70;;;14.10;99.90;;;;;;4936862;29;20408;-73
2020/12/22 04:37:13;;;;;;;1.00;0.80;;;14.20;99.90;;;;;;4941012;29;20467;-73
2020/12/22 04:39:39;;;;;;;1.20;0.80;;;14.20;99.90;;;;;;4936333;29;20467;-73
2020/12/22 04:42:08;;;;;;;2.00;0.80;;;14.10;99.90;;;;;;4957177;28;20410;-73
2020/12/22 04:44:37;;;;;;;1.67;0.80;;;14.20;99.90;;;;;;4957291;28;20432;-73
2020/12/22 04:47:04;;;;;;;1.23;0.70;;;14.20;99.90;;;;;;4952998;28;20471;-73
2020/12/22 04:49:38;;;;;;;0.80;0.73;;;14.10;99.90;;;;;;4936862;29;20428;-73
2020/12/22 04:52:08;;;;;;;1.23;0.80;;;14.10;99.90;;;;;;4937897;29;20455;-73
2020/12/22 04:54:34;;;;;;;0.70;0.50;;;14.10;99.90;;;;;;4936290;29;20424;-73
2020/12/22 04:57:05;;;;;;;0.90;0.70;;;14.10;99.90;;;;;;4937924;29;20448;-73
2020/12/22 04:59:37;;;;;;;1.20;0.80;;;14.10;99.90;;;;;;4921232;29;20934;-74
2020/12/22 05:02:03;;;;;;;0.90;0.80;;;14.10;99.90;;;;;;4920404;29;20448;-73
2020/12/22 05:04:36;;;;;;;1.10;0.80;;;14.20;99.90;;;;;;4937790;29;20433;-73
2020/12/22 05:07:07;;;;;;;1.47;0.67;;;14.20;99.90;;;;;;4936675;28;20476;-73
2020/12/22 05:09:38;;;;;;;0.87;0.77;;;14.30;99.90;;;;;;4936601;29;20444;-73
2020/12/22 05:12:08;;;;;;;2.80;0.70;;;14.20;99.90;;;;;;4936632;29;20952;-73
2020/12/22 05:14:34;;;;;;;0.80;0.60;;;14.20;99.90;;;;;;4937982;29;20443;-73
2020/12/22 05:17:00;;;;;;;2.10;0.83;;;14.30;99.90;;;;;;4939691;29;20468;-73
2020/12/22 05:19:34;;;;;;;0.77;0.60;;;14.30;99.90;;;;;;4972880;28;20493;-73
2020/12/22 05:22:06;;;;;;;2.03;0.90;;;14.30;99.90;;;;;;4974600;28;20864;-73
2020/12/22 05:24:37;;;;;;;1.00;0.90;;;14.20;99.90;;;;;;4975773;28;20466;-73
2020/12/22 05:27:06;;;;;;;0.97;0.70;;;14.20;99.90;;;;;;4974522;28;20466;-73
2020/12/22 05:29:37;;;;;;;1.17;0.70;;;14.20;99.90;;;;;;4975046;28;20827;-73
2020/12/22 05:32:06;;;;;;;1.13;0.90;;;14.20;99.90;;;;;;4956807;28;20435;-73
2020/12/22 05:34:32;;;;;;;0.80;0.70;;;14.30;99.90;;;;;;4956480;28;20448;-73
2020/12/22 05:37:00;;;;;;;0.73;0.70;;;14.20;99.90;;;;;;4955387;29;20546;-73
2020/12/22 05:39:26;;;;;;;1.40;0.80;;;14.20;99.90;;;;;;4955031;28;20458;-73
2020/12/22 05:41:53;;;;;;;1.37;1.10;;;14.10;99.90;;;;;;4955160;29;20412;-73
2020/12/22 05:44:24;;;;;;;0.83;0.70;;;14.20;99.90;;;;;;4956134;28;20849;-73
2020/12/22 05:46:51;;;;;;;1.60;1.50;;;14.20;99.90;;;;;;4955849;28;20510;-73
2020/12/22 05:49:17;;;;;;;1.20;1.10;;;14.20;99.90;;;;;;4938883;29;20439;-73
2020/12/22 05:51:47;;;;;;;0.80;0.80;;;14.20;99.90;;;;;;4955817;28;20422;-73
2020/12/22 05:54:15;;;;;;;1.33;1.00;;;14.20;99.90;;;;;;4954882;28;20440;-73
2020/12/22 05:56:43;;;;;;;1.00;0.90;;;14.30;99.90;;;;;;4970812;28;20502;-73
2020/12/22 05:59:20;;;;;;;1.37;0.90;;;14.30;99.90;;;;;;4928770;29;20424;-73
2020/12/22 06:01:49;;;;;;;0.97;0.90;;;14.20;99.90;;;;;;4951709;29;20415;-73
2020/12/22 06:04:19;;;;;;;1.33;0.90;;;14.30;99.90;;;;;;4935472;28;20420;-73
2020/12/22 06:06:46;;;;;;;1.30;0.93;;;14.20;99.90;;;;;;4936444;29;20491;-73
2020/12/22 06:09:15;;;;;;;1.40;1.30;;;14.10;99.90;;;;;;4935352;29;20423;-73
2020/12/22 06:11:47;;;;;;;1.33;0.87;;;14.20;99.90;;;;;;4935719;29;20409;-73
2020/12/22 06:14:24;;;;;;;2.03;1.20;;;14.20;99.90;;;;;;4936887;29;20756;-73
2020/12/22 06:17:04;;;;;;;1.77;0.90;;;14.20;99.90;;;;;;4935292;28;20451;-73
2020/12/22 06:19:38;;;;;;;0.90;0.73;;;14.20;99.90;;;;;;4919943;29;20444;-73
2020/12/22 06:22:12;;;;;;;1.73;1.30;;;14.20;99.90;;;;;;4936670;29;20432;-73
2020/12/22 06:24:42;;;;;;;3.57;1.20;;;14.20;99.90;;;;;;4936732;29;20945;-74
2020/12/22 06:27:10;;;;;;;1.10;1.00;;;14.10;99.90;;;;;;4935776;29;20476;-74
2020/12/22 06:29:41;;;;;;;1.40;1.00;;;14.00;99.90;;;;;;4946154;29;20952;-74
2020/12/22 06:32:17;;;;;;;1.43;0.80;;;14.00;99.90;;;;;;4954651;28;20415;-73
2020/12/22 06:34:44;;;;;;;2.60;1.30;;;13.90;99.90;;;;;;4955109;28;20497;-73
2020/12/22 06:37:15;;;;;;;1.10;1.00;;;13.90;99.90;;;;;;4943394;28;20561;-73
2020/12/22 06:39:42;;;;;;;1.20;0.97;;;13.80;99.90;;;;;;4974136;28;20438;-73
2020/12/22 06:42:10;;;;;;;3.80;1.00;;;13.70;99.90;;;;;;4974023;28;20512;-73
2020/12/22 06:44:38;;;;;;;1.87;1.00;;;13.70;99.90;;;;;;4955203;28;20947;-78
2020/12/22 06:47:06;;;;;;;2.17;1.83;;;13.70;99.90;;;;;;4937724;29;20522;-74
2020/12/22 06:49:54;;;;;;;1.20;1.10;;;13.70;99.90;;;;;;4920068;29;20429;-75
2020/12/22 06:52:26;;;;;;;1.80;1.13;;;13.70;99.90;;;;;;4923013;29;20504;-75
2020/12/22 06:54:58;;;;;;;1.10;1.00;;;13.70;99.90;;;;;;4933969;29;20487;-76
2020/12/22 06:57:47;;;;;;;2.40;1.30;;;13.70;99.90;;;;;;4934809;29;20413;-75
2020/12/22 07:00:35;;;;;;;2.97;1.10;;;13.70;99.90;;;;;;4918599;29;20424;-75
2020/12/22 07:03:22;;;;;;;2.40;1.00;;;13.60;99.90;;;;;;4939680;28;20460;-75
2020/12/22 07:05:51;;;;;;;2.30;1.20;;;13.70;99.90;;;;;;4952209;28;20475;-76
2020/12/22 07:08:18;;;;;;;1.20;1.10;;;13.70;99.90;;;;;;4952994;28;20474;-75
2020/12/22 07:10:49;;;;;;;2.57;1.33;;;13.70;99.90;;;;;;4954727;28;20917;-75
2020/12/22 07:13:18;;;;;;;1.27;1.17;;;13.70;99.90;;;;;;4946677;28;20431;-75
2020/12/22 07:15:58;;;;;;;2.30;1.23;;;13.70;99.90;;;;;;4934204;29;21020;-75
2020/12/22 07:18:33;;;;;;;1.47;1.00;;;13.70;99.90;;;;;;4943885;29;20485;-75
2020/12/22 07:20:59;;;;;;;2.33;1.40;;;13.80;99.90;;;;;;4952799;28;20925;-75
2020/12/22 07:23:28;;;;;;;1.20;1.00;;;13.80;99.90;;;;;;4937321;29;20422;-75
2020/12/22 07:25:56;;;;;;;1.77;1.33;;;13.80;99.90;;;;;;4953487;29;20455;-75
2020/12/22 07:28:23;;;;;;;1.10;0.90;;;13.80;99.90;;;;;;4969494;28;20888;-75
2020/12/22 07:30:51;;;;;;;1.60;1.47;;;13.90;99.90;;;;;;4954165;28;20419;-75
2020/12/22 07:33:19;;;;;;;2.50;1.43;;;13.90;99.90;;;;;;4969110;28;20429;-75
2020/12/22 07:35:52;;;;;;;1.20;0.90;;;13.90;99.90;;;;;;4954294;28;20451;-75
2020/12/22 07:38:18;;;;;;;1.30;1.20;;;13.90;99.90;;;;;;4953249;29;20428;-75
2020/12/22 07:40:47;;;;;;;3.13;1.13;;;13.90;99.90;;;;;;4937654;29;20515;-75
2020/12/22 07:43:18;;;;;;;1.20;1.10;;;13.80;99.90;;;;;;4944416;28;20489;-75
2020/12/22 07:45:51;;;;;;;3.30;1.20;;;13.90;99.90;;;;;;4965965;28;20459;-75
2020/12/22 07:48:19;;;;;;;3.80;2.00;;;13.90;99.90;;;;;;4952962;28;20475;-75
2020/12/22 07:50:54;;;;;;;1.93;1.10;;;13.90;99.90;;;;;;4959602;28;20445;-76
2020/12/22 07:53:20;;;;;;;1.53;1.20;;;13.90;99.90;;;;;;4969699;28;20924;-75
2020/12/22 07:55:46;;;;;;;2.20;1.50;;;13.90;99.90;;;;;;4967378;28;20477;-75
2020/12/22 07:58:15;;;;;;;1.70;1.40;;;14.00;99.90;;;;;;4973799;28;20504;-75
2020/12/22 08:00:45;;;;;;;1.30;1.20;;;13.90;99.90;;;;;;4959370;28;20440;-76
2020/12/22 08:03:18;;;;;;;2.10;0.90;;;14.00;99.90;;;;;;4963863;28;20526;-75
2020/12/22 08:05:59;;;;;;;2.30;1.10;;;14.00;99.90;;;;;;4968564;28;20454;-75
2020/12/22 08:08:26;;;;;;;1.00;0.90;;;14.00;99.90;;;;;;4966856;28;20568;-76
2020/12/22 08:10:52;;;;;;;1.77;1.20;;;14.00;99.90;;;;;;4965053;28;20422;-75
2020/12/22 08:13:22;;;;;;;1.73;1.20;;;14.00;99.90;;;;;;4962813;28;21087;-75
2020/12/22 08:15:48;;;;;;;1.30;1.20;;;14.10;99.90;;;;;;4945589;28;20455;-75
2020/12/22 08:18:15;;;;;;;2.30;1.13;;;14.10;99.90;;;;;;4969448;28;20537;-75
2020/12/22 08:20:42;;;;;;;1.00;0.90;;;14.10;99.90;;;;;;4967917;28;20427;-75
2020/12/22 08:23:13;;;;;;;1.13;0.93;;;14.10;99.90;;;;;;4963615;28;20434;-75
2020/12/22 08:25:42;;;;;;;2.47;2.00;;;14.10;99.90;;;;;;4961656;28;20442;-75
2020/12/22 08:28:10;;;;;;;1.80;1.00;;;14.10;99.90;;;;;;4957623;28;20466;-75
2020/12/22 08:30:38;;;;;;;2.70;1.10;;;14.10;99.90;;;;;;4972763;28;20521;-75
2020/12/22 08:33:09;;;;;;;3.50;1.30;;;14.10;99.90;;;;;;4962743;28;20442;-75
2020/12/22 08:35:39;;;;;;;4.17;1.20;;;14.20;99.90;;;;;;4972622;28;20450;-75
2020/12/22 08:38:20;;;;;;;2.40;1.40;;;14.10;99.90;;;;;;4958048;28;20435;-75
2020/12/22 08:40:55;;;;;;;2.23;1.40;;;14.10;99.90;;;;;;4954654;28;20434;-75
2020/12/22 08:43:24;;;;;;;2.73;1.40;;;14.20;99.90;;;;;;4960742;28;20508;-75
2020/12/22 08:45:53;;;;;;;1.70;1.30;;;14.20;99.90;;;;;;4973736;28;20454;-75
2020/12/22 08:48:22;;;;;;;3.13;1.27;;;14.10;99.90;;;;;;4962547;28;20484;-76
2020/12/22 08:50:49;;;;;;;2.00;1.20;;;14.20;99.90;;;;;;4966319;28;21039;-75
2020/12/22 08:53:17;;;;;;;1.77;0.97;;;14.20;99.90;;;;;;4958459;28;20865;-75
2020/12/22 08:55:43;;;;;;;1.67;1.10;;;14.20;99.90;;;;;;4943678;28;20913;-75
2020/12/22 08:58:11;;;;;;;1.50;1.40;;;14.20;99.90;;;;;;4958226;28;20802;-75
2020/12/22 09:00:37;;;;;;;2.50;1.20;;;14.20;99.90;;;;;;4952136;28;20526;-75
2020/12/22 09:03:05;;;;;;;1.40;1.30;;;14.30;99.90;;;;;;4958924;28;20992;-75
2020/12/22 09:05:31;;;;;;;1.77;1.30;;;14.20;99.90;;;;;;4947414;28;20488;-75
2020/12/22 09:08:07;;;;;;;1.63;1.10;;;14.20;99.90;;;;;;4946638;28;20474;-76
2020/12/22 09:10:48;;;;;;;2.40;1.10;;;14.20;99.90;;;;;;4945375;28;20487;-75
2020/12/22 09:13:20;;;;;;;1.73;1.13;;;14.30;99.90;;;;;;4953277;28;20440;-75
2020/12/22 09:15:53;;;;;;;3.63;1.30;;;14.30;99.90;;;;;;4948051;28;20530;-75
2020/12/22 09:18:19;;;;;;;1.73;1.60;;;14.30;99.90;;;;;;4938681;28;20443;-75
2020/12/22 09:21:07;;;;;;;1.27;1.17;;;14.30;99.90;;;;;;4948492;28;20444;-76
2020/12/22 09:23:45;;;;;;;1.73;1.27;;;14.40;99.90;;;;;;4963340;28;20458;-74
2020/12/22 09:26:17;;;;;;;2.80;1.17;;;14.40;99.90;;;;;;4929594;28;20843;-73
2020/12/22 09:28:46;;;;;;;1.50;1.10;;;14.40;99.90;;;;;;4956833;28;20948;-74
2020/12/22 09:31:25;;;;;;;3.83;1.33;;;14.40;99.90;;;;;;4940117;28;20459;-75
2020/12/22 09:33:51;;;;;;;2.70;1.33;;;14.30;99.90;;;;;;4923424;29;20526;-74
2020/12/22 09:36:18;;;;;;;2.07;1.43;;;14.40;99.90;;;;;;4933144;29;20455;-75
2020/12/22 09:38:48;;;;;;;2.00;1.30;;;14.40;99.90;;;;;;4960029;28;20423;-75
2020/12/22 09:41:15;;;;;;;1.47;1.10;;;14.40;99.90;;;;;;4951937;28;20438;-75
2020/12/22 09:43:43;;;;;;;2.60;1.43;;;14.30;99.90;;;;;;4959565;28;20489;-75
2020/12/22 09:46:15;;;;;;;1.20;1.10;;;14.10;99.90;;;;;;4960316;28;20455;-75
2020/12/22 09:48:41;;;;;;;1.50;1.10;;;14.00;99.90;;;;;;4967977;28;20477;-75
2020/12/22 09:51:18;;;;;;;1.77;1.40;;;14.00;99.90;;;;;;4939987;28;21059;-74
2020/12/22 09:53:44;;;;;;;1.53;1.30;;;14.00;99.90;;;;;;4957627;28;20441;-75
2020/12/22 09:56:13;;;;;;;1.90;1.20;;;13.90;99.90;;;;;;4944790;28;21215;-75
2020/12/22 09:58:39;;;;;;;1.50;1.40;;;13.80;99.90;;;;;;4957595;28;20951;-75
2020/12/22 10:01:05;;;;;;;1.43;1.30;;;13.80;99.90;;;;;;4960668;28;20462;-75
2020/12/22 10:03:31;;;;;;;2.60;1.70;;;13.70;99.90;;;;;;4949993;28;20502;-74
2020/12/22 10:06:00;;;;;;;1.40;1.30;;;13.70;99.90;;;;;;4959893;28;21787;-78
2020/12/22 10:08:28;;;;;;;1.53;1.40;;;13.60;99.90;;;;;;4960210;28;20523;-74
2020/12/22 10:11:02;;;;;;;1.50;1.40;;;13.60;99.90;;;;;;4959878;28;20475;-75
2020/12/22 10:13:28;;;;;;;2.33;1.70;;;13.70;99.90;;;;;;4958183;28;20820;-74
2020/12/22 10:15:54;;;;;;;1.43;1.33;;;13.60;99.90;;;;;;4941895;28;20454;-74
2020/12/22 10:18:22;;;;;;;1.97;1.77;;;13.60;99.90;;;;;;4959951;28;20438;-75
2020/12/22 10:20:48;;;;;;;2.77;1.50;;;13.60;99.90;;;;;;4954973;28;20969;-74
2020/12/22 10:23:17;;;;;;;2.07;1.87;;;13.60;99.90;;;;;;4949361;28;20438;-73
2020/12/22 10:25:43;;;;;;;2.60;1.40;;;13.70;99.90;;;;;;4971061;28;20824;-76
2020/12/22 10:28:09;;;;;;;1.77;1.40;;;13.80;99.90;;;;;;4958274;28;21039;-77
2020/12/22 10:30:37;;;;;;;3.00;1.40;;;13.90;99.90;;;;;;4955714;28;20435;-75
2020/12/22 10:33:03;;;;;;;2.53;1.00;;;13.90;99.90;;;;;;4952222;28;20502;-74
2020/12/22 10:35:32;;;;;;;2.90;1.60;;;13.90;99.90;;;;;;4958566;28;20454;-73
2020/12/22 10:37:58;;;;;;;2.37;2.00;;;14.00;99.90;;;;;;4961043;28;20579;-74
2020/12/22 10:40:26;;;;;;;3.13;1.80;;;14.00;99.90;;;;;;4963367;28;20439;-74
2020/12/22 10:42:56;;;;;;;1.90;1.60;;;14.00;99.90;;;;;;4963618;28;20435;-74
2020/12/22 10:45:23;;;;;;;3.80;1.30;;;14.20;99.90;;;;;;4941180;28;20473;-75
2020/12/22 10:47:49;;;;;;;1.17;0.90;;;14.20;99.90;;;;;;4963902;28;20462;-76
2020/12/22 10:50:15;;;;;;;1.90;0.80;;;14.30;99.90;;;;;;4957803;28;20872;-74
2020/12/22 10:52:42;;;;;;;1.27;0.97;;;14.30;99.90;;;;;;4963285;28;20423;-75
2020/12/22 10:55:10;;;;;;;2.00;0.90;;;14.40;99.90;;;;;;4949930;28;21017;-75
2020/12/22 10:57:41;;;;;;;3.50;0.90;;;14.40;99.90;;;;;;4951647;28;20438;-74
2020/12/22 11:00:12;;;;;;;1.43;1.23;;;14.30;99.90;;;;;;4950126;28;20437;-75
2020/12/22 11:02:46;;;;;;;1.20;1.10;;;14.30;99.90;;;;;;4962788;28;20454;-76
2020/12/22 11:05:12;;;;;;;1.90;1.10;;;14.30;99.90;;;;;;4962375;28;20439;-75
2020/12/22 11:10:12;;;;;;;2.60;1.30;;;14.40;99.90;;;;;;4940825;28;20435;-75
2020/12/22 11:12:41;;;;;;;1.27;1.13;;;14.50;99.90;;;;;;4954012;28;20548;-78
2020/12/22 11:15:08;;;;;;;1.43;1.30;;;14.60;99.90;;;;;;4955526;28;20522;-77
2020/12/22 11:17:37;;;;;;;1.73;1.17;;;14.60;99.90;;;;;;4970005;28;20438;-77
2020/12/22 11:20:03;;;;;;;0.97;0.93;;;14.60;99.90;;;;;;4966715;28;20422;-76
2020/12/22 11:22:30;;;;;;;1.60;1.40;;;14.60;99.90;;;;;;4944309;28;20451;-76
2020/12/22 11:25:04;;;;;;;1.30;1.20;;;14.50;99.90;;;;;;4967144;28;20446;-76
2020/12/22 11:27:30;;;;;;;2.83;1.60;;;14.50;99.90;;;;;;4970226;28;20474;-77
2020/12/22 11:30:00;;;;;;;1.70;1.60;;;14.40;99.90;;;;;;4952238;28;20975;-77
2020/12/22 11:32:30;;;;;;;2.57;2.23;;;14.40;99.90;;;;;;4966283;28;20430;-77
2020/12/22 11:34:56;;;;;;;4.60;1.40;;;14.30;99.90;;;;;;4954558;28;20438;-77
2020/12/22 11:37:25;;;;;;;3.87;1.30;;;14.20;99.90;;;;;;4972816;28;20446;-77
2020/12/22 11:39:53;;;;;;;6.77;1.43;;;14.20;99.90;;;;;;4970974;28;20581;-76
2020/12/22 11:42:20;;;;;;;1.60;1.10;;;14.10;99.90;;;;;;4967885;28;20939;-80
2020/12/22 11:44:51;;;;;;;2.20;1.20;;;14.20;99.90;;;;;;4950374;28;20441;-79
2020/12/22 11:47:24;;;;;;;1.60;1.30;;;14.30;99.90;;;;;;4946845;28;20630;-78
2020/12/22 11:49:53;;;;;;;3.47;2.03;;;14.30;99.90;;;;;;4955115;28;20462;-78
2020/12/22 11:52:23;;;;;;;2.00;1.60;;;14.30;99.90;;;;;;4968239;28;20862;-78
2020/12/22 11:54:49;;;;;;;2.70;1.27;;;14.30;99.90;;;;;;4968848;28;20513;-80
2020/12/22 11:57:15;;;;;;;1.53;1.40;;;14.40;99.90;;;;;;4966443;28;20455;-76
2020/12/22 11:59:41;;;;;;;1.60;1.50;;;14.50;99.90;;;;;;4955478;28;20443;-76
2020/12/22 12:02:12;;;;;;;2.70;1.40;;;14.40;99.90;;;;;;4946609;28;20464;-77
2020/12/22 12:04:40;;;;;;;2.50;1.80;;;14.40;99.90;;;;;;4958316;28;20490;-77
2020/12/22 12:07:12;;;;;;;2.33;2.00;;;14.40;99.90;;;;;;4947174;28;20535;-75
2020/12/22 12:09:40;;;;;;;2.57;1.80;;;14.30;99.90;;;;;;4956622;28;20434;-75
2020/12/22 12:12:06;;;;;;;1.90;1.70;;;14.30;99.90;;;;;;4953162;28;20447;-76
2020/12/22 12:14:35;;;;;;;2.40;1.77;;;14.30;99.90;;;;;;4954025;28;20884;-76
2020/12/22 12:17:07;;;;;;;2.80;1.90;;;14.30;99.90;;;;;;4966189;28;20456;-75
2020/12/22 12:19:35;;;;;;;2.50;1.77;;;14.30;99.90;;;;;;4958562;28;20498;-75
2020/12/22 12:22:04;;;;;;;3.60;2.07;;;14.30;99.90;;;;;;4961791;28;20442;-75
2020/12/22 12:24:34;;;;;;;3.23;1.90;;;14.20;99.90;;;;;;4953000;28;20454;-76
2020/12/22 12:27:01;;;;;;;1.77;1.67;;;14.20;99.90;;;;;;4957108;28;20998;-75
2020/12/22 12:29:27;;;;;;;2.00;1.80;;;14.40;99.90;;;;;;4951999;28;20806;-75
2020/12/22 12:31:56;;;;;;;1.70;1.30;;;14.50;99.90;;;;;;4957372;28;20440;-76
2020/12/22 12:34:22;;;;;;;1.80;1.47;;;14.50;99.90;;;;;;4935787;29;20546;-76
2020/12/22 12:36:52;;;;;;;1.90;1.50;;;14.60;99.90;;;;;;4946255;28;20479;-75
2020/12/22 12:39:20;;;;;;;1.93;1.40;;;14.70;99.90;;;;;;4963897;28;20431;-75
2020/12/22 12:41:48;;;;;;;1.40;1.30;;;14.80;99.90;;;;;;4953864;28;20975;-76
2020/12/22 12:44:20;;;;;;;1.67;1.53;;;14.80;99.90;;;;;;4951717;28;20442;-76
2020/12/22 12:46:46;;;;;;;3.10;1.63;;;14.80;99.90;;;;;;4939239;28;20454;-75
2020/12/22 12:49:17;;;;;;;1.77;1.60;;;14.80;99.90;;;;;;4930850;28;20447;-76
2020/12/22 12:51:43;;;;;;;2.20;2.00;;;14.90;99.90;;;;;;4966889;28;20431;-76
2020/12/22 12:54:15;;;;;;;2.70;1.40;;;14.90;99.90;;;;;;4957948;28;20842;-76
2020/12/22 12:56:41;;;;;;;1.60;1.50;;;14.90;99.90;;;;;;4957032;28;20503;-76
2020/12/22 12:59:09;;;;;;;5.07;1.40;;;14.90;99.90;;;;;;4935348;28;20459;-75